createdAt,value
2017-11-03T00:01:30.345Z,100311.82
2017-11-03T00:03:57.898Z,100309.70
2017-11-03T00:06:25.366Z,100305.58
2017-11-03T00:08:53.227Z,100309.73
2017-11-03T00:11:20.767Z,100315.32
2017-11-03T00:13:49.071Z,100314.37
2017-11-03T00:16:18.481Z,100323.00
2017-11-03T00:18:45.975Z,100321.14
2017-11-03T00:21:13.514Z,100325.13
2017-11-03T00:23:41.450Z,100323.17
2017-11-03T00:26:09.009Z,100331.91
2017-11-03T00:28:36.839Z,100327.36
2017-11-03T00:31:04.406Z,100332.66
2017-11-03T00:33:31.916Z,100334.39
2017-11-03T00:35:59.414Z,100338.52
2017-11-03T00:38:26.991Z,100333.73
2017-11-03T00:40:54.536Z,100337.73
2017-11-03T00:43:23.077Z,100331.23
2017-11-03T00:45:50.563Z,100328.95
2017-11-03T00:48:18.051Z,100334.95
2017-11-03T00:50:45.563Z,100336.55
2017-11-03T00:53:13.094Z,100338.66
2017-11-03T00:55:40.680Z,100335.44
2017-11-03T00:58:08.268Z,100337.05
2017-11-03T01:00:35.729Z,100339.44
2017-11-03T01:03:03.208Z,100333.08
2017-11-03T01:05:30.730Z,100337.90
2017-11-03T01:07:58.203Z,100332.20
2017-11-03T01:10:25.747Z,100330.61
2017-11-03T01:12:54.477Z,100329.82
2017-11-03T01:15:22.859Z,100332.30
2017-11-03T01:17:50.458Z,100333.73
2017-11-03T01:20:18.010Z,100330.41
2017-11-03T01:22:45.565Z,100334.78
2017-11-03T01:25:13.124Z,100332.81
2017-11-03T01:27:40.688Z,100337.98
2017-11-03T01:30:08.312Z,100339.71
2017-11-03T01:32:36.029Z,100347.39
2017-11-03T01:35:03.654Z,100344.99
2017-11-03T01:37:31.197Z,100351.63
2017-11-03T01:39:58.793Z,100353.08
2017-11-03T01:42:26.339Z,100354.55
2017-11-03T01:44:54.121Z,100350.70
2017-11-03T01:47:21.742Z,100356.94
2017-11-03T01:49:49.350Z,100353.88
2017-11-03T01:52:17.573Z,100360.14
2017-11-03T01:54:46.014Z,100361.33
2017-11-03T01:57:13.571Z,100359.73
2017-11-03T01:59:41.131Z,100360.64
2017-11-03T02:02:08.682Z,100360.66
2017-11-03T02:04:37.100Z,100362.09
2017-11-03T02:07:04.696Z,100364.39
2017-11-03T02:09:33.080Z,100369.45
2017-11-03T02:12:01.437Z,100369.31
2017-11-03T02:14:28.947Z,100365.98
2017-11-03T02:16:57.464Z,100362.81
2017-11-03T02:19:25.473Z,100368.77
2017-11-03T02:21:53.081Z,100368.61
2017-11-03T02:24:20.648Z,100361.05
2017-11-03T02:26:48.212Z,100356.30
2017-11-03T02:29:15.746Z,100357.23
2017-11-03T02:31:44.021Z,100363.11
2017-11-03T02:34:11.680Z,100368.00
2017-11-03T02:36:39.201Z,100370.78
2017-11-03T02:39:06.685Z,100377.78
2017-11-03T02:41:34.162Z,100370.23
2017-11-03T02:44:02.042Z,100385.64
2017-11-03T02:46:29.563Z,100384.70
2017-11-03T02:48:57.124Z,100388.82
2017-11-03T02:51:24.665Z,100389.87
2017-11-03T02:53:52.191Z,100389.73
2017-11-03T02:56:19.717Z,100392.00
2017-11-03T02:58:47.222Z,100385.23
2017-11-03T03:01:14.749Z,100385.66
2017-11-03T03:03:42.244Z,100392.02
2017-11-03T03:06:09.719Z,100394.81
2017-11-03T03:08:37.230Z,100400.36
2017-11-03T03:11:04.720Z,100399.84
2017-11-03T03:13:32.207Z,100394.53
2017-11-03T03:15:59.673Z,100393.45
2017-11-03T03:18:27.533Z,100403.94
2017-11-03T03:20:56.043Z,100405.64
2017-11-03T03:23:23.537Z,100406.60
2017-11-03T03:25:51.015Z,100409.26
2017-11-03T03:28:18.573Z,100407.65
2017-11-03T03:30:46.034Z,100414.69
2017-11-03T03:33:13.504Z,100411.90
2017-11-03T03:35:41.013Z,100409.75
2017-11-03T03:38:08.486Z,100413.51
2017-11-03T03:40:36.024Z,100420.66
2017-11-03T03:43:03.487Z,100417.85
2017-11-03T03:45:31.001Z,100423.41
2017-11-03T03:47:58.457Z,100419.32
2017-11-03T03:50:26.002Z,100413.23
2017-11-03T03:52:53.488Z,100422.67
2017-11-03T03:55:20.958Z,100425.07
2017-11-03T03:57:48.458Z,100426.67
2017-11-03T04:00:15.928Z,100420.05
2017-11-03T04:02:43.455Z,100418.73
2017-11-03T04:05:10.964Z,100422.02
2017-11-03T04:07:38.528Z,100426.13
2017-11-03T04:10:06.088Z,100422.93
2017-11-03T04:12:33.573Z,100419.76
2017-11-03T04:15:01.679Z,100424.65
2017-11-03T04:17:29.164Z,100422.41
2017-11-03T04:19:59.391Z,100427.72
2017-11-03T04:22:27.669Z,100424.53
2017-11-03T04:24:55.165Z,100432.64
2017-11-03T04:27:22.660Z,100430.39
2017-11-03T04:29:50.158Z,100433.55
2017-11-03T04:32:17.703Z,100436.75
2017-11-03T04:34:45.256Z,100440.06
2017-11-03T04:37:12.834Z,100435.77
2017-11-03T04:39:40.352Z,100442.27
2017-11-03T04:42:07.867Z,100433.13
2017-11-03T04:44:35.495Z,100434.06
2017-11-03T04:47:03.017Z,100437.13
2017-11-03T04:49:30.476Z,100441.13
2017-11-03T04:51:58.005Z,100438.34
2017-11-03T04:54:25.469Z,100440.19
2017-11-03T04:56:52.980Z,100440.31
2017-11-03T04:59:20.440Z,100432.77
2017-11-03T05:01:47.936Z,100439.27
2017-11-03T05:04:15.388Z,100438.08
2017-11-03T05:06:42.845Z,100437.03
2017-11-03T05:09:10.370Z,100438.21
2017-11-03T05:11:37.880Z,100447.78
2017-11-03T05:14:05.430Z,100440.61
2017-11-03T05:16:32.919Z,100439.58
2017-11-03T05:19:00.454Z,100445.30
2017-11-03T05:21:27.958Z,100442.38
2017-11-03T05:23:57.870Z,100441.84
2017-11-03T05:26:27.990Z,100444.91
2017-11-03T05:28:56.609Z,100440.94
2017-11-03T05:31:24.083Z,100441.07
2017-11-03T05:33:51.643Z,100440.94
2017-11-03T05:36:19.201Z,100447.42
2017-11-03T05:38:46.745Z,100445.32
2017-11-03T05:41:14.338Z,100440.94
2017-11-03T05:43:41.871Z,100444.91
2017-11-03T05:46:09.399Z,100449.44
2017-11-03T05:48:36.999Z,100447.44
2017-11-03T05:51:04.668Z,100457.13
2017-11-03T05:53:32.214Z,100455.27
2017-11-03T05:55:59.806Z,100455.39
2017-11-03T05:58:27.351Z,100453.65
2017-11-03T06:00:54.868Z,100458.17
2017-11-03T06:03:22.468Z,100460.14
2017-11-03T06:05:50.009Z,100462.28
2017-11-03T06:08:17.582Z,100471.44
2017-11-03T06:10:45.070Z,100467.05
2017-11-03T06:13:12.882Z,100472.62
2017-11-03T06:15:40.361Z,100473.16
2017-11-03T06:18:07.874Z,100476.45
2017-11-03T06:20:35.449Z,100482.83
2017-11-03T06:23:03.034Z,100478.06
2017-11-03T06:25:30.543Z,100480.86
2017-11-03T06:27:58.048Z,100479.41
2017-11-03T06:30:25.517Z,100485.13
2017-11-03T06:32:53.006Z,100489.90
2017-11-03T06:35:20.508Z,100494.93
2017-11-03T06:37:48.000Z,100494.28
2017-11-03T06:40:15.533Z,100503.16
2017-11-03T06:42:43.133Z,100507.28
2017-11-03T06:45:10.639Z,100507.69
2017-11-03T06:47:38.143Z,100515.92
2017-11-03T06:50:05.718Z,100512.31
2017-11-03T06:52:33.230Z,100525.22
2017-11-03T06:55:00.704Z,100525.33
2017-11-03T06:57:28.218Z,100520.97
2017-11-03T06:59:55.731Z,100526.94
2017-11-03T07:02:23.211Z,100524.70
2017-11-03T07:04:50.753Z,100529.73
2017-11-03T07:07:18.373Z,100530.55
2017-11-03T07:09:46.058Z,100533.84
2017-11-03T07:12:13.703Z,100533.33
2017-11-03T07:14:41.198Z,100541.16
2017-11-03T07:17:08.913Z,100543.27
2017-11-03T07:19:36.408Z,100543.27
2017-11-03T07:22:03.940Z,100551.09
2017-11-03T07:24:31.417Z,100548.85
2017-11-03T07:26:58.932Z,100549.91
2017-11-03T07:29:26.492Z,100555.34
2017-11-03T07:31:53.975Z,100546.32
2017-11-03T07:34:21.483Z,100549.76
2017-11-03T07:36:49.154Z,100552.81
2017-11-03T07:39:16.700Z,100550.44
2017-11-03T07:41:45.158Z,100560.23
2017-11-03T07:44:12.657Z,100558.38
2017-11-03T07:46:40.272Z,100563.41
2017-11-03T07:49:07.870Z,100563.64
2017-11-03T07:51:35.530Z,100562.44
2017-11-03T07:54:03.213Z,100567.06
2017-11-03T07:59:12.533Z,100562.77
2017-11-03T08:01:40.098Z,100560.89
2017-11-03T08:04:07.645Z,100560.36
2017-11-03T08:06:35.203Z,100562.04
2017-11-03T08:09:02.767Z,100563.47
2017-11-03T08:11:30.304Z,100561.85
2017-11-03T08:13:57.818Z,100561.16
2017-11-03T08:16:25.308Z,100562.59
2017-11-03T08:18:53.104Z,100563.50
2017-11-03T08:21:20.647Z,100561.89
2017-11-03T08:23:48.208Z,100559.36
2017-11-03T08:26:15.763Z,100565.86
2017-11-03T08:28:43.387Z,100560.84
2017-11-03T08:31:10.886Z,100562.44
2017-11-03T08:33:38.463Z,100558.81
2017-11-03T08:36:05.932Z,100558.64
2017-11-03T08:38:33.528Z,100556.23
2017-11-03T08:41:01.021Z,100556.34
2017-11-03T08:43:28.568Z,100556.05
2017-11-03T08:45:57.015Z,100563.88
2017-11-03T08:48:25.491Z,100563.22
2017-11-03T08:50:53.064Z,100573.02
2017-11-03T08:53:20.713Z,100568.61
2017-11-03T08:55:48.360Z,100567.13
2017-11-03T08:58:15.914Z,100559.37
2017-11-03T09:00:43.582Z,100560.00
2017-11-03T09:03:11.182Z,100566.20
2017-11-03T09:05:38.815Z,100570.39
2017-11-03T09:08:06.594Z,100567.40
2017-11-03T09:10:34.144Z,100565.27
2017-11-03T09:13:01.649Z,100564.16
2017-11-03T09:15:29.180Z,100571.12
2017-11-03T09:17:56.740Z,100568.83
2017-11-03T09:20:24.342Z,100575.17
2017-11-03T09:22:51.954Z,100574.66
2017-11-03T09:25:21.290Z,100577.03
2017-11-03T09:27:49.001Z,100577.22
2017-11-03T09:30:16.615Z,100578.55
2017-11-03T09:32:44.106Z,100578.41
2017-11-03T09:35:11.692Z,100575.48
2017-11-03T09:37:39.170Z,100572.28
2017-11-03T09:40:06.740Z,100577.17
2017-11-03T09:42:34.203Z,100581.64
2017-11-03T09:45:01.737Z,100574.18
2017-11-03T09:47:29.297Z,100576.96
2017-11-03T09:49:56.909Z,100574.11
2017-11-03T09:52:24.571Z,100568.58
2017-11-03T09:57:34.220Z,100571.46
2017-11-03T10:00:07.852Z,100574.88
2017-11-03T10:02:35.505Z,100570.50
2017-11-03T10:05:03.298Z,100567.73
2017-11-03T10:07:30.844Z,100572.30
2017-11-03T10:09:58.383Z,100564.52
2017-11-03T10:12:26.152Z,100565.92
2017-11-03T10:14:54.358Z,100566.73
2017-11-03T10:17:21.837Z,100562.20
2017-11-03T10:19:50.236Z,100557.08
2017-11-03T10:22:17.728Z,100558.98
2017-11-03T10:24:45.333Z,100559.91
2017-11-03T10:27:12.877Z,100555.02
2017-11-03T10:29:40.556Z,100548.95
2017-11-03T10:32:08.134Z,100553.81
2017-11-03T10:34:35.621Z,100548.44
2017-11-03T10:37:03.121Z,100543.89
2017-11-03T10:39:30.609Z,100546.29
2017-11-03T10:41:58.100Z,100548.87
2017-11-03T10:44:25.704Z,100547.06
2017-11-03T10:46:56.252Z,100540.30
2017-11-03T10:49:26.484Z,100543.95
2017-11-03T10:51:54.139Z,100537.01
2017-11-03T10:54:21.607Z,100534.38
2017-11-03T10:56:49.206Z,100530.34
2017-11-03T10:59:16.703Z,100533.41
2017-11-03T11:01:44.221Z,100534.64
2017-11-03T11:04:14.502Z,100530.68
2017-11-03T11:06:42.455Z,100534.44
2017-11-03T11:09:15.742Z,100528.84
2017-11-03T11:11:43.273Z,100529.88
2017-11-03T11:14:10.745Z,100530.97
2017-11-03T11:16:38.250Z,100522.13
2017-11-03T11:19:05.742Z,100524.98
2017-11-03T11:21:33.265Z,100521.19
2017-11-03T11:24:00.747Z,100518.50
2017-11-03T11:26:28.333Z,100518.73
2017-11-03T11:28:56.129Z,100520.70
2017-11-03T11:31:23.652Z,100519.73
2017-11-03T11:33:51.115Z,100515.53
2017-11-03T11:36:18.598Z,100521.78
2017-11-03T11:38:46.124Z,100521.52
2017-11-03T11:41:13.631Z,100515.05
2017-11-03T11:43:41.194Z,100512.00
2017-11-03T11:46:08.835Z,100513.73
2017-11-03T11:48:37.276Z,100509.47
2017-11-03T11:51:04.820Z,100508.60
2017-11-03T11:53:32.337Z,100510.06
2017-11-03T11:56:01.456Z,100506.23
2017-11-03T11:58:29.039Z,100502.52
2017-11-03T12:01:02.289Z,100504.94
2017-11-03T12:03:29.887Z,100501.39
2017-11-03T12:05:57.381Z,100508.18
2017-11-03T12:08:27.449Z,100505.27
2017-11-03T12:10:54.943Z,100505.45
2017-11-03T12:13:23.623Z,100501.59
2017-11-03T12:15:51.847Z,100495.20
2017-11-03T12:18:19.360Z,100493.49
2017-11-03T12:20:46.857Z,100497.36
2017-11-03T12:23:17.770Z,100493.45
2017-11-03T12:25:58.980Z,100494.50
2017-11-03T12:28:44.955Z,100490.97
2017-11-03T12:31:13.087Z,100484.58
2017-11-03T12:33:45.640Z,100485.88
2017-11-03T12:36:13.306Z,100471.18
2017-11-03T12:38:41.008Z,100474.44
2017-11-03T12:41:08.571Z,100488.56
2017-11-03T12:43:36.109Z,100475.28
2017-11-03T12:46:03.660Z,100472.05
2017-11-03T12:48:31.218Z,100476.03
2017-11-03T12:50:58.949Z,100473.63
2017-11-03T12:53:26.557Z,100466.89
2017-11-03T12:55:54.051Z,100471.50
2017-11-03T12:58:27.632Z,100468.66
2017-11-03T13:00:56.011Z,100471.51
2017-11-03T13:03:33.401Z,100471.10
2017-11-03T13:06:01.618Z,100464.29
2017-11-03T13:08:29.094Z,100473.63
2017-11-03T13:10:58.629Z,100465.27
2017-11-03T13:13:26.192Z,100462.95
2017-11-03T13:15:54.800Z,100460.52
2017-11-03T13:18:22.361Z,100460.65
2017-11-03T13:20:50.001Z,100465.64
2017-11-03T13:23:17.552Z,100463.11
2017-11-03T13:25:46.032Z,100464.06
2017-11-03T13:28:13.650Z,100452.69
2017-11-03T13:30:55.261Z,100456.89
2017-11-03T13:33:25.699Z,100452.25
2017-11-03T13:36:06.428Z,100450.16
2017-11-03T13:38:35.229Z,100451.20
2017-11-03T13:41:02.832Z,100449.66
2017-11-03T13:43:30.308Z,100454.97
2017-11-03T13:45:57.795Z,100451.92
2017-11-03T13:48:25.306Z,100451.89
2017-11-03T13:50:54.292Z,100444.31
2017-11-03T13:53:21.758Z,100447.25
2017-11-03T13:55:57.521Z,100447.72
2017-11-03T13:58:32.958Z,100445.34
2017-11-03T14:01:01.681Z,100447.19
2017-11-03T14:03:29.376Z,100444.23
2017-11-03T14:05:56.878Z,100440.66
2017-11-03T14:08:24.373Z,100434.83
2017-11-03T14:10:51.885Z,100435.70
2017-11-03T14:13:19.359Z,100437.84
2017-11-03T14:15:47.013Z,100435.23
2017-11-03T14:18:14.585Z,100435.30
2017-11-03T14:20:42.218Z,100434.80
2017-11-03T14:23:09.725Z,100439.79
2017-11-03T14:25:37.216Z,100443.19
2017-11-03T14:28:06.884Z,100438.40
2017-11-03T14:30:42.409Z,100440.36
2017-11-03T14:33:10.257Z,100446.95
2017-11-03T14:35:51.086Z,100437.27
2017-11-03T14:38:19.241Z,100437.02
2017-11-03T14:40:46.803Z,100438.45
2017-11-03T14:43:21.124Z,100435.41
2017-11-03T14:45:49.368Z,100429.66
2017-11-03T14:48:16.842Z,100431.35
2017-11-03T14:50:44.374Z,100426.38
2017-11-03T14:53:11.841Z,100424.06
2017-11-03T14:55:41.329Z,100419.38
2017-11-03T14:58:08.969Z,100427.59
2017-11-03T15:00:36.526Z,100417.20
2017-11-03T15:03:04.019Z,100419.81
2017-11-03T15:05:31.556Z,100427.74
2017-11-03T15:07:59.049Z,100421.11
2017-11-03T15:10:27.036Z,100419.87
2017-11-03T15:12:54.541Z,100421.25
2017-11-03T15:15:22.052Z,100424.57
2017-11-03T15:17:49.574Z,100423.86
2017-11-03T15:20:17.057Z,100423.28
2017-11-03T15:22:44.546Z,100424.00
2017-11-03T15:25:12.067Z,100418.55
2017-11-03T15:27:39.550Z,100420.53
2017-11-03T15:30:07.232Z,100415.91
2017-11-03T15:32:35.199Z,100416.11
2017-11-03T15:35:02.693Z,100414.70
2017-11-03T15:37:30.192Z,100416.02
2017-11-03T15:39:57.705Z,100420.22
2017-11-03T15:42:25.270Z,100415.92
2017-11-03T15:44:52.776Z,100421.59
2017-11-03T15:47:20.752Z,100422.05
2017-11-03T15:49:48.280Z,100422.44
2017-11-03T15:52:15.800Z,100423.77
2017-11-03T15:54:43.309Z,100424.92
2017-11-03T15:57:10.844Z,100424.18
2017-11-03T15:59:38.335Z,100420.25
2017-11-03T16:02:05.834Z,100425.19
2017-11-03T16:04:34.298Z,100423.18
2017-11-03T16:07:01.790Z,100422.14
2017-11-03T16:09:30.427Z,100424.30
2017-11-03T16:11:57.938Z,100417.45
2017-11-03T16:14:25.803Z,100416.96
2017-11-03T16:16:53.390Z,100418.62
2017-11-03T16:19:20.908Z,100420.11
2017-11-03T16:21:48.529Z,100412.45
2017-11-03T16:24:16.154Z,100409.93
2017-11-03T16:26:43.794Z,100408.78
2017-11-03T16:35:57.065Z,100407.30
2017-11-03T16:38:25.753Z,100407.92
2017-11-03T16:40:53.873Z,100411.55
2017-11-03T16:43:21.461Z,100413.56
2017-11-03T16:45:48.990Z,100410.00
2017-11-03T16:48:16.524Z,100410.19
2017-11-03T16:50:44.235Z,100413.92
2017-11-03T16:53:11.952Z,100411.89
2017-11-03T16:55:39.873Z,100407.74
2017-11-03T16:58:07.427Z,100414.30
2017-11-03T17:00:36.777Z,100409.52
2017-11-03T17:03:04.565Z,100413.30
2017-11-03T17:05:32.264Z,100417.73
2017-11-03T17:08:00.627Z,100415.55
2017-11-03T17:10:28.182Z,100412.02
2017-11-03T17:12:55.724Z,100422.97
2017-11-03T17:15:23.204Z,100420.48
2017-11-03T17:17:50.830Z,100415.20
2017-11-03T17:20:18.417Z,100410.11
2017-11-03T17:22:46.665Z,100410.95
2017-11-03T17:25:14.354Z,100410.03
2017-11-03T17:27:41.878Z,100411.88
2017-11-03T17:30:09.598Z,100417.61
2017-11-03T17:32:37.260Z,100414.52
2017-11-03T17:35:04.795Z,100411.51
2017-11-03T17:37:32.307Z,100411.69
2017-11-03T17:39:59.834Z,100417.97
2017-11-03T17:42:27.700Z,100412.59
2017-11-03T17:44:55.244Z,100410.88
2017-11-03T17:47:22.799Z,100414.56
2017-11-03T17:49:50.323Z,100420.92
2017-11-03T17:52:17.831Z,100417.22
2017-11-03T17:54:45.332Z,100412.59
2017-11-03T17:57:12.836Z,100411.72
2017-11-03T17:59:40.332Z,100410.67
2017-11-03T18:02:07.809Z,100406.42
2017-11-03T18:04:36.355Z,100404.95
2017-11-03T18:07:05.164Z,100399.02
2017-11-03T18:12:15.205Z,100397.75
2017-11-03T18:14:44.563Z,100398.98
2017-11-03T18:17:12.186Z,100394.30
2017-11-03T18:19:39.762Z,100394.85
2017-11-03T18:22:07.432Z,100384.98
2017-11-03T18:24:34.914Z,100385.95
2017-11-03T18:27:03.339Z,100381.14
2017-11-03T18:29:30.801Z,100380.22
2017-11-03T18:31:58.313Z,100380.64
2017-11-03T18:34:25.812Z,100377.95
2017-11-03T18:36:53.321Z,100377.84
2017-11-03T18:39:20.873Z,100371.64
2017-11-03T18:41:48.428Z,100368.89
2017-11-03T18:44:15.956Z,100369.17
2017-11-03T18:46:43.560Z,100370.51
2017-11-03T18:49:11.056Z,100374.30
2017-11-03T18:51:41.175Z,100369.78
2017-11-03T18:54:08.676Z,100369.28
2017-11-03T18:56:36.140Z,100363.35
2017-11-03T18:59:03.656Z,100359.09
2017-11-03T19:01:32.440Z,100360.72
2017-11-03T19:03:59.922Z,100359.65
2017-11-03T19:06:27.405Z,100357.25
2017-11-03T19:08:54.913Z,100360.86
2017-11-03T19:11:22.449Z,100363.40
2017-11-03T19:13:50.005Z,100361.57
2017-11-03T19:16:17.504Z,100364.78
2017-11-03T19:18:45.006Z,100366.91
2017-11-03T19:21:12.552Z,100368.51
2017-11-03T19:23:40.851Z,100370.60
2017-11-03T19:26:08.416Z,100364.44
2017-11-03T19:28:35.918Z,100367.01
2017-11-03T19:31:03.456Z,100366.13
2017-11-03T19:33:30.961Z,100364.67
2017-11-03T19:35:58.471Z,100369.49
2017-11-03T19:38:25.965Z,100369.80
2017-11-03T19:40:53.464Z,100372.80
2017-11-03T19:43:20.940Z,100372.30
2017-11-03T19:45:48.488Z,100370.42
2017-11-03T19:48:15.967Z,100372.72
2017-11-03T19:50:43.482Z,100374.77
2017-11-03T19:53:11.212Z,100378.94
2017-11-03T19:55:38.739Z,100382.26
2017-11-03T19:58:06.194Z,100379.60
2017-11-03T20:00:33.680Z,100383.68
2017-11-03T20:03:01.163Z,100378.56
2017-11-03T20:05:28.639Z,100375.05
2017-11-03T20:07:56.171Z,100372.56
2017-11-03T20:10:23.678Z,100375.38
2017-11-03T20:12:51.183Z,100371.80
2017-11-03T20:15:18.689Z,100374.03
2017-11-03T20:17:46.188Z,100366.24
2017-11-03T20:20:13.645Z,100364.24
2017-11-03T20:22:41.139Z,100368.92
2017-11-03T20:25:08.623Z,100364.09
2017-11-03T20:27:36.394Z,100360.52
2017-11-03T20:30:04.618Z,100362.23
2017-11-03T20:32:32.717Z,100361.32
2017-11-03T20:35:00.650Z,100363.45
2017-11-03T20:37:28.654Z,100360.27
2017-11-03T20:39:56.382Z,100368.24
2017-11-03T20:42:26.708Z,100369.72
2017-11-03T20:44:55.179Z,100370.73
2017-11-03T20:47:26.236Z,100367.14
2017-11-03T20:49:53.757Z,100362.92
2017-11-03T20:52:21.240Z,100360.92
2017-11-03T20:54:48.759Z,100369.33
2017-11-03T20:57:16.345Z,100377.59
2017-11-03T20:59:44.580Z,100372.66
2017-11-03T21:02:15.457Z,100377.31
2017-11-03T21:04:44.735Z,100375.16
2017-11-03T21:07:12.221Z,100370.28
2017-11-03T21:09:39.707Z,100370.96
2017-11-03T21:12:07.215Z,100369.66
2017-11-03T21:14:34.714Z,100364.86
2017-11-03T21:17:02.224Z,100355.83
2017-11-03T21:19:29.780Z,100358.06
2017-11-03T21:21:57.260Z,100356.55
2017-11-03T21:24:24.734Z,100359.98
2017-11-03T21:26:52.226Z,100355.08
2017-11-03T21:29:19.778Z,100357.20
2017-11-03T21:31:47.600Z,100349.66
2017-11-03T21:34:15.124Z,100349.27
2017-11-03T21:36:42.662Z,100347.55
2017-11-03T21:39:10.149Z,100340.83
2017-11-03T21:41:37.641Z,100343.72
2017-11-03T21:44:05.091Z,100341.61
2017-11-03T21:46:32.651Z,100343.48
2017-11-03T21:49:05.243Z,100338.67
2017-11-03T21:51:32.768Z,100345.06
2017-11-03T21:54:00.286Z,100339.64
2017-11-03T21:56:27.852Z,100342.80
2017-11-03T21:58:55.378Z,100339.47
2017-11-03T22:01:22.890Z,100340.62
2017-11-03T22:03:50.381Z,100336.52
2017-11-03T22:06:17.835Z,100336.50
2017-11-03T22:08:45.327Z,100335.56
2017-11-03T22:11:12.809Z,100337.31
2017-11-03T22:13:40.324Z,100332.92
2017-11-03T22:16:08.730Z,100343.17
2017-11-03T22:18:36.232Z,100343.05
2017-11-03T22:21:03.767Z,100343.58
2017-11-03T22:23:31.307Z,100341.08
2017-11-03T22:25:59.547Z,100338.58
2017-11-03T22:28:27.100Z,100331.61
2017-11-03T22:30:54.608Z,100332.93
2017-11-03T22:33:22.145Z,100330.27
2017-11-03T22:35:49.627Z,100330.00
2017-11-03T22:38:17.136Z,100331.33
2017-11-03T22:40:44.627Z,100323.65
2017-11-03T22:43:12.173Z,100329.77
2017-11-03T22:45:40.589Z,100325.79
2017-11-03T22:48:11.164Z,100322.75
2017-11-03T22:50:41.385Z,100322.52
2017-11-03T22:53:09.597Z,100313.51
2017-11-03T22:55:37.288Z,100314.02
2017-11-03T22:58:09.271Z,100315.62
2017-11-03T23:00:36.951Z,100310.46
2017-11-03T23:03:05.313Z,100309.64
2017-11-03T23:05:32.866Z,100307.80
2017-11-03T23:08:00.425Z,100303.72
2017-11-03T23:10:31.342Z,100302.80
2017-11-03T23:13:02.008Z,100302.25
2017-11-03T23:15:32.353Z,100300.28
2017-11-03T23:18:02.254Z,100300.66
2017-11-03T23:20:29.818Z,100304.38
2017-11-03T23:22:57.280Z,100298.42
2017-11-03T23:25:24.906Z,100303.86
2017-11-03T23:27:52.423Z,100295.24
2017-11-03T23:30:19.896Z,100297.27
2017-11-03T23:32:49.469Z,100295.04
2017-11-03T23:35:16.948Z,100291.71
2017-11-03T23:37:44.455Z,100282.17
2017-11-03T23:40:14.448Z,100291.20
2017-11-03T23:42:41.934Z,100287.63
2017-11-03T23:45:12.392Z,100289.09
2017-11-03T23:47:40.016Z,100284.47
2017-11-03T23:50:08.881Z,100283.51
2017-11-03T23:52:38.072Z,100281.53
2017-11-03T23:55:06.752Z,100276.89
2017-11-03T23:57:36.052Z,100273.46
